Time;durP1;ratioP1;P1;durP2;ratioP2;P2;SDS_P1;SDS_P2;PMS_P1;PMS_P2;Temp;Humidity;BMP_temperature;BMP_pressure;BME280_temperature;BME280_humidity;BME280_pressure;Samples;Min_cycle;Max_cycle;Signal;HPM_P1;HPM_P2
2022/08/13 00:01:15;;;;;;;;;10.80;8.40;;;;;27.53;26.51;100903.09;5097684;27;45424;-54
2022/08/13 00:03:42;;;;;;;;;11.20;9.00;;;;;27.49;26.35;100891.84;5097751;27;45311;-54
2022/08/13 00:06:08;;;;;;;;;8.80;7.80;;;;;27.46;26.55;100895.06;5097505;27;47133;-55
2022/08/13 00:08:35;;;;;;;;;11.00;8.60;;;;;27.42;26.45;100898.56;5097494;27;45412;-55
2022/08/13 00:11:04;;;;;;;;;9.60;8.00;;;;;27.39;26.83;100894.47;5097601;27;45263;-55
2022/08/13 00:13:30;;;;;;;;;7.60;7.60;;;;;27.38;27.14;100898.25;5097634;27;45310;-56
2022/08/13 00:15:55;;;;;;;;;13.50;7.75;;;;;27.35;26.70;100902.34;5096865;27;46222;-54
2022/08/13 00:18:24;;;;;;;;;7.25;7.25;;;;;27.34;26.59;100906.13;5097493;27;45437;-55
2022/08/13 00:20:53;;;;;;;;;6.20;4.80;;;;;27.24;26.52;100891.53;5079097;27;45453;-55
2022/08/13 00:23:20;;;;;;;;;7.80;7.80;;;;;27.23;26.59;100901.63;5097430;27;45252;-55
2022/08/13 00:25:50;;;;;;;;;9.80;9.80;;;;;27.16;27.16;100887.31;5097005;27;45390;-56
2022/08/13 00:28:18;;;;;;;;;9.20;7.60;;;;;27.15;26.70;100902.06;5097130;27;45410;-54
2022/08/13 00:30:46;;;;;;;;;8.40;7.20;;;;;27.13;26.87;100900.66;5097236;27;45271;-56
2022/08/13 00:33:15;;;;;;;;;7.75;7.75;;;;;27.08;27.06;100895.91;5097600;27;45338;-55
2022/08/13 00:35:47;;;;;;;;;6.80;6.80;;;;;27.06;26.99;100896.19;5078276;27;47006;-56
2022/08/13 00:38:22;;;;;;;;;9.60;8.00;;;;;27.06;27.03;100907.09;5097103;27;45272;-55
2022/08/13 00:40:59;;;;;;;;;11.20;8.00;;;;;27.01;26.79;100896.13;5097107;27;45330;-56
2022/08/13 00:43:26;;;;;;;;;7.25;7.25;;;;;26.99;27.04;100901.00;5097231;27;45471;-54
2022/08/13 00:45:54;;;;;;;;;10.40;10.00;;;;;26.99;26.99;100902.91;5096527;27;46192;-54
2022/08/13 00:51:08;;;;;;;;;9.40;9.00;;;;;26.90;27.33;100896.22;5096949;27;45328;-55
2022/08/13 00:53:37;;;;;;;;;7.40;7.20;;;;;26.84;27.33;100898.03;5097152;27;45413;-56
2022/08/13 00:56:03;;;;;;;;;10.20;8.60;;;;;26.81;28.07;100893.91;5096675;27;46103;-54
2022/08/13 00:58:28;;;;;;;;;9.00;8.00;;;;;26.82;27.92;100898.28;5096044;27;45365;-55
2022/08/13 01:00:59;;;;;;;;;7.75;7.75;;;;;26.80;27.53;100894.16;5096657;27;45420;-55
2022/08/13 01:03:29;;;;;;;;;7.40;6.80;;;;;26.73;27.49;100893.53;5097010;27;45323;-55
2022/08/13 01:05:59;;;;;;;;;7.60;7.60;;;;;26.70;28.09;100899.47;5096726;27;46256;-54
2022/08/13 01:08:26;;;;;;;;;7.60;7.40;;;;;26.69;27.57;100895.09;5096610;27;45322;-56
2022/08/13 01:10:56;;;;;;;;;8.60;8.20;;;;;26.67;27.94;100897.22;5099315;27;45343;-55
2022/08/13 01:13:26;;;;;;;;;8.25;6.50;;;;;26.66;27.63;100895.59;5100578;27;45532;-55
2022/08/13 01:15:52;;;;;;;;;8.40;8.20;;;;;26.62;27.78;100907.00;5099888;27;45560;-56
2022/08/13 01:18:22;;;;;;;;;8.20;7.80;;;;;26.58;28.24;100910.47;5081834;27;46264;-57
2022/08/13 01:20:58;;;;;;;;;8.60;7.20;;;;;26.55;28.12;100903.63;5100212;27;45351;-56
2022/08/13 01:23:25;;;;;;;;;6.50;6.50;;;;;26.41;28.50;100882.34;5100271;27;45458;-56
2022/08/13 01:25:52;;;;;;;;;5.80;5.80;;;;;26.52;28.75;100900.56;5099887;27;46334;-54
2022/08/13 01:28:19;;;;;;;;;8.40;8.40;;;;;26.49;28.63;100899.16;5099937;27;45194;-55
2022/08/13 01:30:46;;;;;;;;;5.20;5.20;;;;;26.42;28.18;100906.66;5099753;27;45379;-55
2022/08/13 01:33:16;;;;;;;;;9.75;8.00;;;;;26.37;29.00;100903.81;5099999;27;45360;-54
2022/08/13 01:35:42;;;;;;;;;9.00;7.20;;;;;26.32;28.65;100899.13;5099414;27;47193;-55
2022/08/13 01:38:08;;;;;;;;;10.40;7.80;;;;;26.31;28.54;100904.81;5099310;27;45347;-54
2022/08/13 01:40:34;;;;;;;;;10.60;10.60;;;;;26.30;28.36;100906.72;5099790;27;45356;-55
2022/08/13 01:43:00;;;;;;;;;6.80;6.80;;;;;26.22;28.48;100896.22;5100009;27;45295;-54
2022/08/13 01:45:28;;;;;;;;;9.50;9.25;;;;;26.28;28.62;100902.59;5099561;27;46565;-54
2022/08/13 01:50:37;;;;;;;;;7.00;7.00;;;;;26.28;28.77;100903.41;5099675;27;45416;-55
2022/08/13 01:53:11;;;;;;;;;7.75;6.25;;;;;26.26;27.88;100905.56;5099809;27;45391;-54
2022/08/13 01:55:48;;;;;;;;;6.20;6.20;;;;;26.22;28.23;100900.88;5099457;27;46424;-55
2022/08/13 01:58:20;;;;;;;;;7.20;6.40;;;;;26.17;27.80;100898.88;5099335;27;45251;-54
2022/08/13 02:00:51;;;;;;;;;9.20;7.80;;;;;26.21;28.65;100907.38;5099450;27;45191;-55
2022/08/13 02:03:19;;;;;;;;;8.00;8.00;;;;;26.21;28.60;100899.19;5099502;27;45212;-55
2022/08/13 02:05:47;;;;;;;;;7.00;7.00;;;;;26.21;28.00;100910.09;5099302;27;46189;-55
2022/08/13 02:08:14;;;;;;;;;9.00;9.00;;;;;26.17;28.63;100908.94;5098976;27;45409;-54
2022/08/13 02:10:42;;;;;;;;;7.00;7.00;;;;;26.13;28.55;100909.44;5099171;27;45338;-55
2022/08/13 02:13:16;;;;;;;;;4.50;4.50;;;;;26.12;28.03;100910.53;5099483;27;45490;-55
2022/08/13 02:15:44;;;;;;;;;6.00;6.00;;;;;26.11;28.33;100906.13;5080646;27;47157;-54
2022/08/13 02:18:17;;;;;;;;;8.60;8.60;;;;;26.10;27.92;100903.66;5099129;27;45425;-54
2022/08/13 02:20:45;;;;;;;;;6.40;6.40;;;;;26.06;28.33;100908.75;5099095;27;45366;-54
2022/08/13 02:23:16;;;;;;;;;7.00;7.00;;;;;26.02;28.47;100912.22;5098890;27;45221;-55
2022/08/13 02:25:45;;;;;;;;;5.75;5.75;;;;;25.97;28.44;100910.25;5098875;27;46189;-55
2022/08/13 02:28:14;;;;;;;;;7.00;7.00;;;;;25.91;28.73;100900.28;5098975;27;45305;-55
2022/08/13 02:30:41;;;;;;;;;7.20;7.20;;;;;25.96;28.40;100907.78;5098928;27;45303;-55
2022/08/13 02:33:06;;;;;;;;;6.50;6.50;;;;;25.95;28.30;100906.09;5099199;27;45686;-55
2022/08/13 02:35:35;;;;;;;;;3.50;3.25;;;;;25.91;28.15;100911.19;5098656;27;46223;-58
2022/08/13 02:38:01;;;;;;;;;7.40;6.20;;;;;25.80;28.77;100893.03;5098734;27;45377;-55
2022/08/13 02:43:12;;;;;;;;;5.50;5.50;;;;;25.88;28.11;100912.53;5099247;27;45651;-56
2022/08/13 02:45:38;;;;;;;;;6.00;6.00;;;;;25.89;28.05;100910.63;5099077;27;47027;-54
2022/08/13 02:48:05;;;;;;;;;8.00;5.60;;;;;25.83;28.15;100907.00;5099208;27;45547;-55
2022/08/13 02:50:31;;;;;;;;;9.60;7.00;;;;;25.86;28.59;100909.22;5099650;27;45279;-56
2022/08/13 02:52:57;;;;;;;;;5.50;5.50;;;;;25.85;28.28;100912.19;5099338;27;45230;-57
2022/08/13 02:55:23;;;;;;;;;5.75;5.75;;;;;25.77;28.89;100898.94;5098364;27;46505;-54
2022/08/13 02:57:50;;;;;;;;;5.80;5.80;;;;;25.84;28.18;100902.38;5098428;27;45333;-54
2022/08/13 03:00:17;;;;;;;;;9.60;6.80;;;;;25.67;28.68;100888.66;5098553;27;45558;-54
2022/08/13 03:02:44;;;;;;;;;5.50;5.00;;;;;25.78;28.15;100906.88;5098575;27;45537;-53
2022/08/13 03:05:14;;;;;;;;;7.00;7.00;;;;;25.72;28.32;100902.38;5098115;27;45372;-54
2022/08/13 03:07:42;;;;;;;;;6.20;5.40;;;;;25.71;28.78;100916.25;5098276;27;45310;-54
2022/08/13 03:10:13;;;;;;;;;6.80;6.80;;;;;25.69;28.57;100907.47;5098568;27;45333;-53
2022/08/13 03:12:41;;;;;;;;;6.00;6.00;;;;;25.70;29.23;100909.13;5098447;27;45364;-56
2022/08/13 03:15:10;;;;;;;;;7.25;7.00;;;;;25.71;28.25;100908.09;5098089;27;46159;-57
2022/08/13 03:17:37;;;;;;;;;7.60;7.60;;;;;25.57;28.89;100891.16;5097966;27;45447;-54
2022/08/13 03:20:07;;;;;;;;;5.75;5.75;;;;;25.69;28.74;100907.47;5098337;27;45712;-55
2022/08/13 03:22:49;;;;;;;;;7.00;6.00;;;;;25.65;28.83;100904.41;5098323;27;45484;-55
2022/08/13 03:25:16;;;;;;;;;5.25;5.25;;;;;25.64;29.26;100900.03;5097737;27;46941;-54
2022/08/13 03:27:41;;;;;;;;;6.00;5.00;;;;;25.63;29.55;100912.84;5097860;27;45377;-54
2022/08/13 03:30:08;;;;;;;;;11.75;9.75;;;;;25.62;29.37;100903.03;5098071;27;45442;-55
2022/08/13 03:32:40;;;;;;;;;10.25;8.00;;;;;25.56;29.16;100906.69;5097489;27;45485;-55
2022/08/13 03:35:28;;;;;;;;;7.75;7.00;;;;;25.53;28.83;100912.63;5096586;27;45469;-55
2022/08/13 03:37:55;;;;;;;;;7.80;7.80;;;;;25.48;29.01;100904.34;5097740;27;45394;-54
2022/08/13 03:40:23;;;;;;;;;6.00;6.00;;;;;25.44;28.77;100908.63;5097929;27;45400;-52
2022/08/13 03:42:49;;;;;;;;;7.25;7.00;;;;;25.38;29.08;100893.25;5098075;27;45475;-55
2022/08/13 03:45:16;;;;;;;;;7.50;7.50;;;;;25.39;29.50;100897.63;5097675;27;45371;-54
2022/08/13 03:47:43;;;;;;;;;9.25;7.00;;;;;25.38;29.04;100899.53;5097679;27;45418;-53
2022/08/13 03:50:10;;;;;;;;;5.80;5.80;;;;;25.34;29.70;100898.34;5097731;27;45310;-54
2022/08/13 03:52:37;;;;;;;;;6.75;6.75;;;;;25.34;29.21;100911.16;5098039;27;45473;-54
2022/08/13 03:55:09;;;;;;;;;5.00;5.00;;;;;25.32;28.92;100908.66;5097579;27;46371;-54
2022/08/13 03:57:40;;;;;;;;;6.40;5.20;;;;;25.27;29.31;100908.53;5097493;27;45378;-54
2022/08/13 04:00:12;;;;;;;;;8.25;7.75;;;;;25.26;29.26;100911.53;5097696;27;45378;-54
2022/08/13 04:02:40;;;;;;;;;8.50;8.50;;;;;25.25;29.59;100904.44;5097775;27;45418;-54
2022/08/13 04:05:19;;;;;;;;;7.75;7.75;;;;;25.24;29.67;100903.59;5078976;27;46405;-54
2022/08/13 04:07:44;;;;;;;;;5.60;5.60;;;;;25.17;29.50;100896.63;5097302;27;45367;-53
2022/08/13 04:10:11;;;;;;;;;7.00;7.00;;;;;25.18;29.61;100906.44;5097629;27;45345;-53
2022/08/13 04:12:37;;;;;;;;;6.00;5.50;;;;;25.14;29.48;100911.53;5097596;27;45312;-54
2022/08/13 04:15:05;;;;;;;;;8.00;8.00;;;;;25.12;29.91;100908.25;5096889;27;46313;-54
2022/08/13 04:17:30;;;;;;;;;6.60;5.80;;;;;25.04;29.56;100903.94;5097234;27;45326;-55
2022/08/13 04:19:57;;;;;;;;;6.75;6.00;;;;;25.02;29.39;100905.25;5097421;27;45578;-55
2022/08/13 04:22:27;;;;;;;;;6.00;6.00;;;;;24.95;30.21;100899.94;5097322;27;45414;-55
2022/08/13 04:24:53;;;;;;;;;5.75;5.50;;;;;25.01;29.57;100909.03;5097082;27;46378;-55
2022/08/13 04:27:18;;;;;;;;;9.00;6.00;;;;;24.98;29.60;100906.78;5097206;27;45424;-54
2022/08/13 04:29:43;;;;;;;;;8.00;7.00;;;;;24.88;29.79;100902.78;5097549;27;45240;-55
2022/08/13 04:32:09;;;;;;;;;10.25;8.50;;;;;24.91;30.51;100908.81;5097337;27;45186;-54
2022/08/13 04:34:34;;;;;;;;;6.00;6.00;;;;;24.91;29.52;100908.81;5096784;27;45319;-55
2022/08/13 04:37:01;;;;;;;;;7.00;6.75;;;;;24.85;30.71;100903.25;5096845;27;45329;-54
2022/08/13 04:39:27;;;;;;;;;6.25;6.25;;;;;24.79;30.00;100897.94;5097223;27;45399;-54
2022/08/13 04:41:53;;;;;;;;;6.75;6.75;;;;;24.81;30.55;100912.13;5097372;27;45432;-53
2022/08/13 04:44:19;;;;;;;;;7.00;7.00;;;;;24.75;30.26;100907.63;5097291;27;47199;-55
2022/08/13 04:46:44;;;;;;;;;7.00;7.00;;;;;24.68;30.34;100902.28;5100258;27;45384;-54
2022/08/13 04:49:12;;;;;;;;;7.00;5.75;;;;;24.71;30.43;100898.28;5098844;27;45718;-54
2022/08/13 04:51:39;;;;;;;;;9.00;7.75;;;;;24.74;30.30;100911.44;5100686;27;45367;-54
2022/08/13 04:54:05;;;;;;;;;6.00;6.00;;;;;24.72;30.57;100908.91;5100478;27;47002;-54
2022/08/13 04:56:30;;;;;;;;;6.75;4.50;;;;;24.72;30.60;100899.94;5100289;27;45339;-53
2022/08/13 04:58:56;;;;;;;;;7.75;6.00;;;;;24.70;30.78;100904.81;5082103;27;45418;-54
2022/08/13 05:01:22;;;;;;;;;6.75;6.75;;;;;24.70;30.54;100905.63;5100828;27;45345;-53
2022/08/13 05:03:48;;;;;;;;;6.00;6.00;;;;;24.67;30.51;100906.09;5100013;27;46295;-55
2022/08/13 05:06:19;;;;;;;;;7.00;5.75;;;;;24.62;31.18;100904.06;5100165;27;45874;-53
2022/08/13 05:08:46;;;;;;;;;5.50;5.50;;;;;24.63;30.70;100911.16;5100464;27;45213;-54
2022/08/13 05:11:12;;;;;;;;;5.25;5.25;;;;;24.51;30.73;100896.72;5100464;27;45437;-54
2022/08/13 05:13:38;;;;;;;;;6.00;6.00;;;;;24.60;30.73;100917.06;5100046;27;46048;-53
2022/08/13 05:16:06;;;;;;;;;7.00;5.20;;;;;24.59;30.84;100914.59;5099967;27;45393;-52
2022/08/13 05:18:33;;;;;;;;;6.00;6.00;;;;;24.55;31.09;100914.22;5100221;27;45346;-53
2022/08/13 05:21:03;;;;;;;;;8.00;8.00;;;;;24.60;31.22;100918.97;5100685;27;45338;-54
2022/08/13 05:23:30;;;;;;;;;6.25;6.00;;;;;24.59;30.38;100914.59;5099949;27;46612;-53
2022/08/13 05:25:59;;;;;;;;;3.25;3.25;;;;;24.62;30.79;100919.56;5100083;27;45342;-54
2022/08/13 05:28:25;;;;;;;;;6.00;5.50;;;;;24.62;30.94;100928.56;5100286;27;45298;-54
2022/08/13 05:30:51;;;;;;;;;6.00;6.00;;;;;24.60;30.65;100921.69;5100195;27;45366;-53
2022/08/13 05:33:22;;;;;;;;;7.25;7.25;;;;;24.59;30.84;100925.47;5097724;27;46901;-53
2022/08/13 05:35:51;;;;;;;;;6.00;6.00;;;;;24.59;30.40;100926.31;5094229;27;45278;-53
2022/08/13 05:38:22;;;;;;;;;9.75;8.00;;;;;24.53;31.07;100910.94;5099947;27;45547;-53
2022/08/13 05:40:56;;;;;;;;;7.00;7.00;;;;;24.62;30.71;100920.41;5081936;27;45364;-53
2022/08/13 05:43:25;;;;;;;;;7.75;6.00;;;;;24.63;31.05;100927.50;5099598;27;46203;-53
2022/08/13 05:45:59;;;;;;;;;7.00;6.00;;;;;24.63;31.04;100921.22;5098808;27;45477;-52
2022/08/13 05:48:28;;;;;;;;;6.00;4.50;;;;;24.63;31.18;100926.66;5099654;27;45480;-53
2022/08/13 05:50:56;;;;;;;;;5.00;5.00;;;;;24.61;30.58;100920.66;5100103;27;45430;-53
2022/08/13 05:53:22;;;;;;;;;8.75;7.75;;;;;24.62;31.30;100925.00;5099591;27;46277;-53
2022/08/13 05:55:48;;;;;;;;;6.75;5.75;;;;;24.62;31.35;100923.13;5080181;27;45280;-54
2022/08/13 05:58:13;;;;;;;;;7.00;7.00;;;;;24.64;31.30;100934.56;5099453;27;45366;-54
2022/08/13 06:03:25;;;;;;;;;6.00;6.00;;;;;24.68;31.10;100923.22;5099191;27;45787;-53
2022/08/13 06:06:00;;;;;;;;;7.00;5.00;;;;;24.67;30.94;100925.13;5099577;27;45294;-55
2022/08/13 06:08:40;;;;;;;;;6.50;6.50;;;;;24.67;31.87;100932.47;5099611;27;45361;-52
2022/08/13 06:11:08;;;;;;;;;6.00;6.00;;;;;24.68;31.32;100932.22;5099686;27;45310;-54
2022/08/13 06:13:38;;;;;;;;;7.00;7.00;;;;;24.69;31.51;100933.88;5099290;27;46475;-53
2022/08/13 06:16:05;;;;;;;;;5.75;5.75;;;;;24.68;31.44;100929.50;5098680;27;45438;-53
2022/08/13 06:18:33;;;;;;;;;7.50;7.00;;;;;24.68;31.55;100929.50;5099110;27;45296;-54
2022/08/13 06:21:01;;;;;;;;;6.50;6.50;;;;;24.67;31.55;100938.72;5099699;27;45355;-54
2022/08/13 06:23:30;;;;;;;;;7.25;6.50;;;;;24.66;31.35;100930.81;5098982;27;46386;-54
2022/08/13 06:25:57;;;;;;;;;6.60;5.80;;;;;24.72;31.33;100929.88;5099047;27;45305;-54
2022/08/13 06:28:26;;;;;;;;;5.00;5.00;;;;;24.71;31.85;100930.94;5099108;27;45416;-53
2022/08/13 06:30:53;;;;;;;;;7.00;7.00;;;;;24.79;31.75;100927.88;5099306;27;45712;-54
2022/08/13 06:33:22;;;;;;;;;7.50;6.50;;;;;24.81;31.56;100925.72;5098648;27;46988;-55
2022/08/13 06:35:58;;;;;;;;;7.00;6.20;;;;;24.84;31.80;100936.97;5098553;27;45321;-53
2022/08/13 06:38:31;;;;;;;;;5.50;5.25;;;;;24.87;31.50;100938.41;5099045;27;45268;-51
2022/08/13 06:41:00;;;;;;;;;7.00;6.00;;;;;24.79;31.52;100925.13;5099071;27;45421;-54
2022/08/13 06:43:30;;;;;;;;;5.50;5.50;;;;;24.94;32.08;100938.25;5098747;27;46038;-54
2022/08/13 06:45:58;;;;;;;;;5.20;5.20;;;;;25.00;30.88;100937.31;5098806;27;45327;-55
2022/08/13 06:48:24;;;;;;;;;6.75;4.50;;;;;25.00;31.48;100940.06;5098810;27;45256;-53
2022/08/13 06:50:50;;;;;;;;;6.50;5.25;;;;;24.96;31.33;100928.81;5098728;27;45500;-54
2022/08/13 06:53:16;;;;;;;;;6.50;6.25;;;;;24.99;31.64;100931.06;5098570;27;46407;-54
2022/08/13 06:55:43;;;;;;;;;5.00;5.00;;;;;25.07;31.61;100933.41;5098543;27;45453;-55
2022/08/13 06:58:10;;;;;;;;;7.00;7.00;;;;;25.10;31.40;100923.97;5098875;27;45321;-55
2022/08/13 07:00:38;;;;;;;;;6.75;6.00;;;;;25.32;31.30;100940.50;5098817;27;45407;-55
2022/08/13 07:03:07;;;;;;;;;6.75;5.75;;;;;25.50;31.95;100934.09;5098375;27;45325;-54
2022/08/13 07:05:38;;;;;;;;;10.20;6.00;;;;;25.82;31.22;100940.75;5098296;27;45251;-54
2022/08/13 07:08:07;;;;;;;;;4.25;4.25;;;;;26.17;30.47;100938.94;5098494;27;45328;-55
2022/08/13 07:10:34;;;;;;;;;5.00;5.00;;;;;26.64;30.06;100938.69;5098503;27;45354;-54
2022/08/13 07:13:01;;;;;;;;;7.00;6.50;;;;;27.18;29.50;100937.06;5098137;27;46133;-53
2022/08/13 07:15:27;;;;;;;;;5.20;5.20;;;;;27.73;28.57;100938.06;5097882;27;45264;-54
2022/08/13 07:17:55;;;;;;;;;6.25;6.25;;;;;28.22;27.89;100947.03;5098393;27;45434;-54
2022/08/13 07:20:21;;;;;;;;;6.60;5.40;;;;;28.64;27.77;100938.09;5098378;27;45347;-52
2022/08/13 07:22:47;;;;;;;;;4.40;4.40;;;;;29.17;27.17;100933.56;5097877;27;46100;-56
2022/08/13 07:25:13;;;;;;;;;6.25;6.25;;;;;29.70;27.45;100937.09;5098210;27;45430;-54
2022/08/13 07:27:40;;;;;;;;;5.50;5.50;;;;;30.18;25.88;100937.78;5098211;27;45274;-53
2022/08/13 07:30:07;;;;;;;;;4.20;4.20;;;;;30.82;25.21;100933.69;5098224;27;45364;-53
2022/08/13 07:32:38;;;;;;;;;5.00;3.60;;;;;31.42;24.92;100936.56;5097880;27;47112;-53
2022/08/13 07:35:04;;;;;;;;;5.20;5.20;;;;;31.78;23.98;100937.22;5097533;27;45531;-53
2022/08/13 07:37:30;;;;;;;;;4.25;4.25;;;;;32.17;23.58;100941.94;5098175;27;45332;-52
2022/08/13 07:39:59;;;;;;;;;7.50;6.00;;;;;32.61;22.93;100952.06;5098215;27;45487;-54
2022/08/13 07:42:27;;;;;;;;;6.60;5.80;;;;;33.12;22.99;100948.81;5097713;27;46144;-53
2022/08/13 07:44:53;;;;;;;;;7.60;6.40;;;;;33.71;21.99;100951.16;5097719;27;45521;-54
2022/08/13 07:47:20;;;;;;;;;4.60;4.40;;;;;34.34;21.68;100940.84;5097586;27;45418;-54
2022/08/13 07:49:47;;;;;;;;;7.20;6.00;;;;;34.98;21.13;100936.47;5097901;27;45408;-53
2022/08/13 07:52:14;;;;;;;;;7.60;5.00;;;;;35.69;20.58;100937.78;5097665;27;46495;-54
2022/08/13 07:54:42;;;;;;;;;5.00;5.00;;;;;36.51;19.54;100940.59;5097582;27;46128;-54
2022/08/13 07:57:08;;;;;;;;;7.80;6.00;;;;;37.40;18.42;100942.34;5097604;27;45404;-55
2022/08/13 07:59:36;;;;;;;;;6.60;5.00;;;;;38.57;18.44;100929.47;5097862;27;45329;-54
2022/08/13 08:02:06;;;;;;;;;3.80;3.80;;;;;40.42;16.00;100930.47;5097317;27;45562;-54
2022/08/13 08:04:34;;;;;;;;;4.60;4.60;;;;;42.66;14.85;100938.69;5097243;27;45366;-55
2022/08/13 08:07:01;;;;;;;;;9.00;8.00;;;;;44.37;14.58;100936.19;5097472;27;45355;-55
2022/08/13 08:09:29;;;;;;;;;4.60;4.00;;;;;45.23;12.41;100935.69;5097516;27;45258;-53
2022/08/13 08:14:44;;;;;;;;;5.20;4.80;;;;;47.63;10.36;100935.38;5097302;27;45430;-55
2022/08/13 08:17:11;;;;;;;;;6.50;5.25;;;;;48.41;11.41;100934.88;5097533;27;45279;-53
2022/08/13 08:19:41;;;;;;;;;3.80;3.80;;;;;48.42;11.15;100906.25;5098220;27;45602;-52
2022/08/13 08:22:08;;;;;;;;;4.40;3.60;;;;;49.08;9.74;100936.91;5101156;27;47039;-53
2022/08/13 08:24:35;;;;;;;;;3.80;3.80;;;;;49.91;9.47;100943.16;5101029;27;45324;-54
2022/08/13 08:27:03;;;;;;;;;4.20;3.20;;;;;51.05;8.25;100933.84;5101128;27;45454;-53
2022/08/13 08:29:31;;;;;;;;;3.80;3.80;;;;;51.91;8.69;100938.56;5101515;27;45376;-52
2022/08/13 08:31:59;;;;;;;;;3.80;3.80;;;;;52.52;8.61;100943.34;5100439;27;45423;-54
2022/08/13 08:34:26;;;;;;;;;3.00;2.20;;;;;53.06;8.10;100938.38;5100639;27;45255;-52
2022/08/13 08:36:56;;;;;;;;;4.00;4.00;;;;;53.44;8.42;100931.53;5100574;27;45432;-53
2022/08/13 08:42:40;;;;;;;;;2.20;2.20;;;;;53.55;7.41;100943.53;5100587;27;45883;-53
2022/08/13 08:45:01;;;;;;;;;2.40;2.40;;;;;53.91;7.17;100942.78;5098330;27;45223;-52
2022/08/13 08:47:35;;;;;;;;;3.80;3.20;;;;;54.31;7.06;100954.88;5100890;27;45325;-54
2022/08/13 08:50:01;;;;;;;;;3.00;2.00;;;;;54.62;7.83;100946.81;5100810;27;45448;-54
2022/08/13 08:53:19;;;;;;;;;4.25;4.25;;;;;54.88;6.24;100953.47;5100384;27;47027;-54
2022/08/13 08:55:15;;;;;;;;;4.40;2.80;;;;;55.57;6.83;100956.03;5100053;27;45499;-54
2022/08/13 08:57:44;;;;;;;;;3.00;3.00;;;;;55.68;5.41;100958.59;5100109;27;45462;-54
2022/08/13 09:00:16;;;;;;;;;2.60;2.40;;;;;55.88;5.68;100956.34;5100854;27;45361;-54
2022/08/13 09:02:42;;;;;;;;;3.40;3.40;;;;;56.12;5.39;100953.97;5100406;27;45346;-54
2022/08/13 09:05:13;;;;;;;;;1.40;1.40;;;;;56.21;5.88;100953.28;5100221;27;45601;-55
2022/08/13 09:07:41;;;;;;;;;3.40;2.20;;;;;56.73;5.82;100952.00;5100607;27;45440;-55
2022/08/13 09:10:11;;;;;;;;;2.60;2.60;;;;;56.88;6.51;100952.28;5100583;27;45437;-54
2022/08/13 09:12:40;;;;;;;;;1.60;1.60;;;;;57.12;5.89;100952.69;5099920;27;46432;-54
2022/08/13 09:15:07;;;;;;;;;3.60;2.20;;;;;56.96;5.63;100948.69;5098797;27;45570;-55
2022/08/13 09:17:33;;;;;;;;;3.20;3.20;;;;;57.04;6.46;100942.75;5100203;27;45449;-55
2022/08/13 09:19:58;;;;;;;;;1.20;1.20;;;;;57.03;5.92;100941.97;5100338;27;45437;-55
2022/08/13 09:22:24;;;;;;;;;2.00;2.00;;;;;57.20;4.79;100942.56;5099609;27;45321;-54
2022/08/13 09:24:57;;;;;;;;;3.20;3.20;;;;;56.85;5.17;100936.84;5099833;27;45226;-54
2022/08/13 09:27:23;;;;;;;;;3.40;2.80;;;;;56.89;5.63;100940.38;5100278;27;45246;-54
2022/08/13 09:29:50;;;;;;;;;1.00;1.00;;;;;57.08;6.05;100943.44;5100245;27;45472;-54
2022/08/13 09:32:16;;;;;;;;;3.60;3.60;;;;;57.60;5.30;100936.16;5099580;27;46255;-55
2022/08/13 09:34:45;;;;;;;;;2.40;2.40;;;;;57.31;5.46;100945.81;5099473;27;45451;-55
2022/08/13 09:37:12;;;;;;;;;2.40;2.40;;;;;56.54;5.72;100938.75;5099534;27;45515;-56
2022/08/13 09:39:53;;;;;;;;;4.00;3.00;;;;;57.06;4.80;100945.94;5099981;27;45490;-55
2022/08/13 09:42:33;;;;;;;;;3.20;3.00;;;;;57.73;5.26;100949.13;5099722;27;46570;-55
2022/08/13 09:44:59;;;;;;;;;1.80;1.80;;;;;57.83;5.58;100944.25;5099585;27;45391;-56
2022/08/13 09:47:25;;;;;;;;;2.00;2.00;;;;;57.50;5.00;100929.59;5099879;27;45241;-55
2022/08/13 09:49:51;;;;;;;;;1.80;1.60;;;;;57.49;5.17;100940.25;5099958;27;45302;-57
2022/08/13 09:52:17;;;;;;;;;2.25;1.75;;;;;57.48;5.19;100937.84;5099567;27;45290;-55
2022/08/13 09:54:43;;;;;;;;;2.00;2.00;;;;;57.85;4.77;100935.97;5099444;27;45349;-56
2022/08/13 09:57:09;;;;;;;;;2.40;2.40;;;;;58.15;4.17;100939.31;5099752;27;45507;-54
2022/08/13 09:59:35;;;;;;;;;2.00;2.00;;;;;58.52;5.03;100939.41;5099898;27;45524;-56
2022/08/13 10:02:05;;;;;;;;;2.00;2.00;;;;;58.07;4.09;100943.72;5099611;27;45331;-55
2022/08/13 10:04:32;;;;;;;;;1.80;1.80;;;;;57.79;4.79;100931.38;5099618;27;45364;-56
2022/08/13 10:06:58;;;;;;;;;2.00;2.00;;;;;57.95;3.97;100925.41;5099273;27;45325;-55
2022/08/13 10:09:26;;;;;;;;;2.60;2.00;;;;;58.14;4.10;100921.31;5099646;27;45452;-55
2022/08/13 10:11:54;;;;;;;;;2.20;1.60;;;;;58.02;3.91;100927.16;5099197;27;45932;-54
2022/08/13 10:14:20;;;;;;;;;2.40;2.40;;;;;57.85;4.79;100921.66;5099381;27;45245;-55
2022/08/13 10:16:46;;;;;;;;;2.75;2.75;;;;;57.87;5.18;100915.50;5099490;27;45232;-55
2022/08/13 10:19:11;;;;;;;;;4.75;2.75;;;;;57.92;4.10;100921.38;5099568;27;45361;-55
2022/08/13 10:21:37;;;;;;;;;3.25;1.75;;;;;58.10;4.02;100919.88;5099136;27;46189;-54
2022/08/13 10:24:04;;;;;;;;;1.00;1.00;;;;;58.21;5.00;100920.25;5099072;27;45412;-55
2022/08/13 10:26:29;;;;;;;;;1.60;1.60;;;;;57.69;4.87;100908.41;5099240;27;45576;-55
2022/08/13 10:28:55;;;;;;;;;0.00;0.00;;;;;57.54;4.71;100915.16;5081147;27;45435;-55
2022/08/13 10:31:21;;;;;;;;;0.25;0.25;;;;;57.48;5.05;100918.63;5099004;27;45284;-55
2022/08/13 10:33:47;;;;;;;;;2.00;2.00;;;;;57.07;5.03;100910.38;5098916;27;45399;-55
2022/08/13 10:36:14;;;;;;;;;4.40;3.00;;;;;57.29;4.49;100911.16;5098638;27;45382;-55
2022/08/13 10:38:40;;;;;;;;;2.60;2.00;;;;;57.34;4.19;100916.31;5099261;27;45163;-54
2022/08/13 10:41:07;;;;;;;;;2.00;2.00;;;;;57.01;4.76;100910.94;5098826;27;46111;-55
2022/08/13 10:43:35;;;;;;;;;3.80;3.80;;;;;57.42;4.59;100911.91;5098251;27;45456;-55
2022/08/13 10:46:00;;;;;;;;;4.40;3.00;;;;;57.55;4.59;100911.03;5098899;27;45352;-55
2022/08/13 10:48:27;;;;;;;;;3.00;3.00;;;;;57.29;5.15;100898.94;5099128;27;45325;-54
2022/08/13 10:50:54;;;;;;;;;3.00;3.00;;;;;57.26;4.06;100903.50;5098430;27;45274;-55
2022/08/13 10:56:04;;;;;;;;;3.00;1.60;;;;;56.78;4.72;100896.31;5099002;27;45306;-54
2022/08/13 10:58:31;;;;;;;;;1.50;1.50;;;;;56.81;5.17;100896.19;5098906;27;45203;-55
2022/08/13 11:00:59;;;;;;;;;2.20;2.20;;;;;56.27;5.64;100892.28;5098288;27;46354;-55
2022/08/13 11:03:24;;;;;;;;;2.40;2.40;;;;;55.95;4.92;100884.75;5097827;27;45361;-55
2022/08/13 11:05:49;;;;;;;;;3.75;2.00;;;;;54.99;5.44;100896.97;5098480;27;45371;-55
2022/08/13 11:08:15;;;;;;;;;2.50;2.50;;;;;55.18;5.34;100886.69;5098748;27;45365;-55
2022/08/13 11:10:40;;;;;;;;;3.25;1.75;;;;;55.00;5.79;100886.38;5097606;27;45325;-54
2022/08/13 11:13:06;;;;;;;;;3.00;3.00;;;;;54.58;5.08;100886.28;5098311;27;45302;-54
2022/08/13 11:15:32;;;;;;;;;2.75;2.75;;;;;54.47;5.32;100885.72;5098603;27;45275;-55
2022/08/13 11:17:58;;;;;;;;;2.40;2.00;;;;;53.88;5.94;100859.09;5098675;27;45346;-55
2022/08/13 11:20:27;;;;;;;;;2.00;2.00;;;;;53.56;6.16;100877.69;5098231;27;46996;-54
2022/08/13 11:22:54;;;;;;;;;2.40;2.40;;;;;53.53;6.17;100872.06;5098165;27;45561;-54
2022/08/13 11:25:20;;;;;;;;;2.00;2.00;;;;;52.98;6.19;100880.06;5097396;27;45318;-55
2022/08/13 11:27:46;;;;;;;;;2.20;2.20;;;;;52.76;5.65;100875.97;5098341;27;45444;-54
2022/08/13 11:30:14;;;;;;;;;1.00;1.00;;;;;51.99;5.97;100868.31;5097584;27;46059;-53
2022/08/13 11:32:40;;;;;;;;;3.60;2.60;;;;;51.63;6.11;100866.00;5097634;27;45399;-55
2022/08/13 11:35:06;;;;;;;;;2.75;2.75;;;;;51.49;6.35;100880.31;5097798;27;45407;-53
2022/08/13 11:37:31;;;;;;;;;1.40;1.40;;;;;50.45;6.50;100864.38;5098142;27;45681;-54
2022/08/13 11:39:57;;;;;;;;;3.00;3.00;;;;;49.81;7.38;100859.94;5097939;27;45962;-53
2022/08/13 11:42:22;;;;;;;;;2.00;2.00;;;;;49.45;7.32;100864.97;5097929;27;45235;-54
2022/08/13 11:44:47;;;;;;;;;1.75;1.75;;;;;48.64;7.49;100859.06;5097862;27;45488;-53
2022/08/13 11:47:13;;;;;;;;;2.00;2.00;;;;;47.77;7.58;100862.16;5098106;27;45406;-54
2022/08/13 11:49:38;;;;;;;;;2.25;2.25;;;;;45.66;8.47;100860.44;5097673;27;46137;-53